Time;durP1;ratioP1;P1;durP2;ratioP2;P2;SDS_P1;SDS_P2;PMS_P1;PMS_P2;Temp;Humidity;BMP_temperature;BMP_pressure;BME280_temperature;BME280_humidity;BME280_pressure;Samples;Min_cycle;Max_cycle;Signal;HPM_P1;HPM_P2
2023/01/29 00:02:18;;;;;;;;;;;0.10;99.90;;;;;;5088906;28;20011;-71
2023/01/29 00:04:49;;;;;;;;;;;0.10;99.90;;;;;;5049504;28;20448;-71
2023/01/29 00:07:19;;;;;;;;;;;0.10;99.90;;;;;;5107751;28;20015;-71
2023/01/29 00:09:53;;;;;;;;;;;0.10;99.90;;;;;;5079028;28;19928;-71
2023/01/29 00:12:25;;;;;;;;;;;0.10;99.90;;;;;;5074935;28;20394;-71
2023/01/29 00:14:58;;;;;;;;;;;0.10;99.90;;;;;;5066849;28;19957;-71
2023/01/29 00:17:27;;;;;;;;;;;0.10;99.90;;;;;;5089408;28;19928;-71
2023/01/29 00:19:57;;;;;;;;;;;0.10;99.90;;;;;;5090713;28;19932;-71
2023/01/29 00:22:26;;;;;;;;;;;0.00;99.90;;;;;;5063076;28;20426;-71
2023/01/29 00:24:55;;;;;;;;;;;0.00;99.90;;;;;;5063224;28;19974;-71
2023/01/29 00:27:24;;;;;;;;;;;0.00;99.90;;;;;;5082880;28;19986;-71
2023/01/29 00:30:11;;;;;;;;;;;0.00;99.90;;;;;;5104273;28;19935;-72
2023/01/29 00:32:41;;;;;;;;;;;0.00;99.90;;;;;;5066114;28;19924;-70
2023/01/29 00:35:11;;;;;;;;;;;0.00;99.90;;;;;;5070248;28;20014;-70
2023/01/29 00:37:41;;;;;;;;;;;0.00;99.90;;;;;;5069125;28;19925;-71
2023/01/29 00:40:11;;;;;;;;;;;0.00;99.90;;;;;;5043487;28;20107;-71
2023/01/29 00:45:31;;;;;;;;;;;0.00;99.90;;;;;;5073624;28;19931;-70
2023/01/29 00:48:00;;;;;;;;;;;0.00;99.90;;;;;;5040404;28;19947;-72
2023/01/29 00:50:32;;;;;;;;;;;-0.10;99.90;;;;;;5053062;28;19924;-71
2023/01/29 00:53:05;;;;;;;;;;;-0.10;99.90;;;;;;5061856;28;19925;-71
2023/01/29 00:55:34;;;;;;;;;;;-0.10;99.90;;;;;;5050286;28;19931;-70
2023/01/29 00:58:03;;;;;;;;;;;-0.20;99.90;;;;;;5043366;28;20428;-71
2023/01/29 01:00:32;;;;;;;;;;;-0.10;99.90;;;;;;5040757;28;20035;-71
2023/01/29 01:03:07;;;;;;;;;;;-0.20;99.90;;;;;;5072264;28;19951;-70
2023/01/29 01:06:05;;;;;;;;;;;-0.20;99.90;;;;;;5064230;28;19947;-71
2023/01/29 01:11:24;;;;;;;;;;;-0.20;99.90;;;;;;5064389;28;19977;-71
2023/01/29 01:13:53;;;;;;;;;;;-0.20;99.90;;;;;;5073103;28;19932;-72
2023/01/29 01:16:25;;;;;;;;;;;-0.20;99.90;;;;;;5063281;28;20011;-72
2023/01/29 01:18:54;;;;;;;;;;;-0.20;99.90;;;;;;5048359;28;19924;-73
2023/01/29 01:21:23;;;;;;;;;;;-0.20;99.90;;;;;;5048017;28;20019;-71
2023/01/29 01:23:55;;;;;;;;;;;-0.20;99.90;;;;;;5070345;28;20012;-72
2023/01/29 01:26:24;;;;;;;;;;;-0.20;99.90;;;;;;5062717;28;19976;-72
2023/01/29 01:28:54;;;;;;;;;;;-0.20;99.90;;;;;;5056827;28;20465;-73
2023/01/29 01:31:24;;;;;;;;;;;-0.20;99.90;;;;;;5039710;28;20407;-72
2023/01/29 01:33:55;;;;;;;;;;;-0.20;99.90;;;;;;5038868;28;19929;-72
2023/01/29 01:36:25;;;;;;;;;;;-0.20;99.90;;;;;;5055904;28;20023;-73
2023/01/29 01:38:56;;;;;;;;;;;-0.20;99.90;;;;;;5040139;28;20272;-72
2023/01/29 01:41:24;;;;;;;;;;;-0.30;99.90;;;;;;5042391;28;20023;-72
2023/01/29 01:43:57;;;;;;;;;;;-0.30;99.90;;;;;;5064573;28;19928;-72
2023/01/29 01:46:32;;;;;;;;;;;-0.20;99.90;;;;;;5057555;28;20401;-72
2023/01/29 01:49:07;;;;;;;;;;;-0.30;99.90;;;;;;5071713;28;19928;-74
2023/01/29 01:51:38;;;;;;;;;;;-0.30;99.90;;;;;;5051746;28;19924;-72
2023/01/29 01:54:17;;;;;;;;;;;-0.30;99.90;;;;;;5056764;28;20043;-72
2023/01/29 01:56:53;;;;;;;;;;;-0.20;99.90;;;;;;5056381;28;20281;-72
2023/01/29 01:59:23;;;;;;;;;;;-0.20;99.90;;;;;;5051829;28;19978;-72
2023/01/29 02:01:54;;;;;;;;;;;-0.20;99.90;;;;;;5070629;28;20453;-74
2023/01/29 02:10:01;;;;;;;;;;;-0.20;99.90;;;;;;5061387;28;20016;-74
2023/01/29 02:12:37;;;;;;;;;;;-0.20;99.90;;;;;;5066709;28;19956;-74
2023/01/29 02:15:06;;;;;;;;;;;-0.20;99.90;;;;;;5071132;28;20417;-73
2023/01/29 02:17:35;;;;;;;;;;;-0.20;99.90;;;;;;5053619;28;19931;-73
2023/01/29 02:20:10;;;;;;;;;;;-0.20;99.90;;;;;;5054804;28;19978;-74
2023/01/29 02:22:55;;;;;;;;;;;-0.20;99.90;;;;;;5043818;28;19974;-74
2023/01/29 02:25:42;;;;;;;;;;;-0.20;99.90;;;;;;5055115;28;20116;-74
2023/01/29 02:28:29;;;;;;;;;;;-0.20;99.90;;;;;;5066047;28;19924;-74
2023/01/29 02:30:58;;;;;;;;;;;-0.20;99.90;;;;;;5070258;28;19928;-74
2023/01/29 02:33:33;;;;;;;;;;;-0.20;99.90;;;;;;5072122;28;19987;-73
2023/01/29 02:36:05;;;;;;;;;;;-0.20;99.90;;;;;;5049005;28;19925;-74
2023/01/29 02:38:43;;;;;;;;;;;-0.20;99.90;;;;;;5048327;28;19928;-74
2023/01/29 02:41:19;;;;;;;;;;;-0.20;99.90;;;;;;5065991;28;20329;-74
2023/01/29 02:43:54;;;;;;;;;;;-0.20;99.90;;;;;;5047389;28;19971;-73
2023/01/29 02:46:36;;;;;;;;;;;-0.20;99.90;;;;;;5063926;28;19968;-73
2023/01/29 02:49:17;;;;;;;;;;;-0.20;99.90;;;;;;5064628;28;19992;-74
2023/01/29 02:52:08;;;;;;;;;;;-0.30;99.90;;;;;;5058877;28;19932;-74
2023/01/29 02:54:37;;;;;;;;;;;-0.30;99.90;;;;;;5044257;28;19924;-74
2023/01/29 02:57:29;;;;;;;;;;;-0.30;99.90;;;;;;5055241;28;20035;-74
2023/01/29 02:59:59;;;;;;;;;;;-0.30;99.90;;;;;;5069467;28;19936;-74
2023/01/29 03:02:34;;;;;;;;;;;-0.30;99.90;;;;;;5040877;28;19928;-74
2023/01/29 03:05:09;;;;;;;;;;;-0.30;99.90;;;;;;5064079;28;20008;-74
2023/01/29 03:07:55;;;;;;;;;;;-0.40;99.90;;;;;;5086330;28;19975;-73
2023/01/29 03:10:33;;;;;;;;;;;-0.40;99.90;;;;;;5071912;28;20290;-73
2023/01/29 03:13:13;;;;;;;;;;;-0.30;99.90;;;;;;5064248;28;19925;-74
2023/01/29 03:18:55;;;;;;;;;;;-0.30;99.90;;;;;;5063484;28;19956;-74
2023/01/29 03:34:23;;;;;;;;;;;-0.30;99.90;;;;;;5066708;28;19924;-73
2023/01/29 03:37:12;;;;;;;;;;;-0.30;99.90;;;;;;5069178;28;19928;-72
2023/01/29 03:39:44;;;;;;;;;;;-0.30;99.90;;;;;;5050160;28;20379;-74
2023/01/29 03:42:49;;;;;;;;;;;-0.30;99.90;;;;;;5059362;28;20413;-74
2023/01/29 03:45:27;;;;;;;;;;;-0.30;99.90;;;;;;5039106;28;19924;-74
2023/01/29 03:48:14;;;;;;;;;;;-0.30;99.90;;;;;;5046397;28;19924;-74
2023/01/29 03:50:56;;;;;;;;;;;-0.30;99.90;;;;;;5071475;28;20302;-74
2023/01/29 03:53:55;;;;;;;;;;;-0.30;99.90;;;;;;5053916;28;19925;-72
2023/01/29 03:56:30;;;;;;;;;;;-0.30;99.90;;;;;;5036077;28;19925;-74
2023/01/29 03:59:24;;;;;;;;;;;-0.30;99.90;;;;;;5069318;28;19931;-74
2023/01/29 04:02:26;;;;;;;;;;;-0.30;99.90;;;;;;5063408;28;19958;-72
2023/01/29 04:05:13;;;;;;;;;;;-0.30;99.90;;;;;;5052294;28;19925;-74
2023/01/29 04:08:15;;;;;;;;;;;-0.30;99.90;;;;;;5066315;28;19928;-74
2023/01/29 04:10:48;;;;;;;;;;;-0.30;99.90;;;;;;5066814;28;19924;-74
2023/01/29 04:13:20;;;;;;;;;;;-0.40;99.90;;;;;;5049225;28;20014;-74
2023/01/29 04:15:56;;;;;;;;;;;-0.30;99.90;;;;;;5054138;28;19925;-74
2023/01/29 04:18:54;;;;;;;;;;;-0.40;99.90;;;;;;5060402;28;19936;-73
2023/01/29 04:21:36;;;;;;;;;;;-0.40;99.90;;;;;;5055416;28;19929;-74
2023/01/29 04:24:07;;;;;;;;;;;-0.40;99.90;;;;;;5032683;28;20043;-74
2023/01/29 04:26:50;;;;;;;;;;;-0.40;99.90;;;;;;5053688;28;19925;-73
2023/01/29 04:29:48;;;;;;;;;;;-0.40;99.90;;;;;;5050694;28;20306;-73
2023/01/29 04:32:41;;;;;;;;;;;-0.40;99.90;;;;;;5071736;28;19978;-73
2023/01/29 04:35:30;;;;;;;;;;;-0.40;99.90;;;;;;5060930;28;19928;-74
2023/01/29 04:38:19;;;;;;;;;;;-0.40;99.90;;;;;;5058175;28;19928;-74
2023/01/29 04:40:54;;;;;;;;;;;-0.40;99.90;;;;;;5050793;28;19925;-74
2023/01/29 04:43:54;;;;;;;;;;;-0.40;99.90;;;;;;5077950;28;19931;-73
2023/01/29 04:46:47;;;;;;;;;;;-0.40;99.90;;;;;;5081977;28;20114;-71
2023/01/29 04:49:37;;;;;;;;;;;-0.50;99.90;;;;;;5073134;28;19933;-74
2023/01/29 04:52:07;;;;;;;;;;;-0.50;99.90;;;;;;5051305;28;19929;-74
2023/01/29 04:54:39;;;;;;;;;;;-0.50;99.90;;;;;;5041447;28;20038;-73
2023/01/29 04:57:12;;;;;;;;;;;-0.50;99.90;;;;;;5070647;28;20298;-74
2023/01/29 04:59:46;;;;;;;;;;;-0.50;99.90;;;;;;5072849;28;19977;-74
2023/01/29 05:02:19;;;;;;;;;;;-0.50;99.90;;;;;;5060763;28;19982;-72
2023/01/29 05:04:50;;;;;;;;;;;-0.50;99.90;;;;;;5064752;28;20386;-74
2023/01/29 05:07:26;;;;;;;;;;;-0.50;99.90;;;;;;5066921;28;19928;-74
2023/01/29 05:09:57;;;;;;;;;;;-0.50;99.90;;;;;;5074599;28;19973;-72
2023/01/29 05:12:28;;;;;;;;;;;-0.50;99.90;;;;;;5082423;28;19924;-73
2023/01/29 05:15:11;;;;;;;;;;;-0.40;99.90;;;;;;5083193;28;20367;-74
2023/01/29 05:17:44;;;;;;;;;;;-0.40;99.90;;;;;;5075176;28;19936;-74
2023/01/29 05:20:20;;;;;;;;;;;-0.50;99.90;;;;;;5064481;28;19946;-73
2023/01/29 05:22:50;;;;;;;;;;;-0.60;99.90;;;;;;5067302;28;19924;-74
2023/01/29 05:25:34;;;;;;;;;;;-0.60;99.90;;;;;;5085265;28;19927;-74
2023/01/29 05:28:07;;;;;;;;;;;-0.50;99.90;;;;;;5055075;28;19931;-73
2023/01/29 05:30:36;;;;;;;;;;;-0.60;99.90;;;;;;5053799;28;19928;-74
2023/01/29 05:33:04;;;;;;;;;;;-0.60;99.90;;;;;;5059044;28;19925;-74
2023/01/29 05:35:37;;;;;;;;;;;-0.60;99.90;;;;;;5084538;28;19925;-73
2023/01/29 05:38:22;;;;;;;;;;;-0.60;99.90;;;;;;5064558;28;20035;-74
2023/01/29 05:40:53;;;;;;;;;;;-0.60;99.90;;;;;;5048831;28;19933;-73
2023/01/29 05:43:25;;;;;;;;;;;-0.50;99.90;;;;;;5078258;28;20387;-73
2023/01/29 05:46:01;;;;;;;;;;;-0.50;99.90;;;;;;5063891;28;20408;-73
2023/01/29 05:48:41;;;;;;;;;;;-0.50;99.90;;;;;;5089777;28;19977;-73
2023/01/29 05:51:16;;;;;;;;;;;-0.50;99.90;;;;;;5079284;28;19928;-74
2023/01/29 05:53:50;;;;;;;;;;;-0.50;99.90;;;;;;5058857;28;20632;-74
2023/01/29 05:56:22;;;;;;;;;;;-0.50;99.90;;;;;;5086896;28;20344;-74
2023/01/29 05:58:56;;;;;;;;;;;-0.40;99.90;;;;;;5062660;28;19984;-74
2023/01/29 06:01:27;;;;;;;;;;;-0.50;99.90;;;;;;5054260;28;19924;-73
2023/01/29 06:03:57;;;;;;;;;;;-0.50;99.90;;;;;;5077927;28;20022;-71
2023/01/29 06:06:28;;;;;;;;;;;-0.60;99.90;;;;;;5078907;28;20421;-72
2023/01/29 06:08:57;;;;;;;;;;;-0.50;99.90;;;;;;5063688;28;19928;-71
2023/01/29 06:11:26;;;;;;;;;;;-0.50;99.90;;;;;;5054045;28;20020;-74
2023/01/29 06:13:55;;;;;;;;;;;-0.50;99.90;;;;;;5079938;28;19931;-73
2023/01/29 06:16:23;;;;;;;;;;;-0.50;99.90;;;;;;5060122;28;19935;-74
2023/01/29 06:18:52;;;;;;;;;;;-0.50;99.90;;;;;;5052627;28;19928;-74
2023/01/29 06:21:21;;;;;;;;;;;-0.50;99.90;;;;;;5046015;28;20032;-74
2023/01/29 06:23:52;;;;;;;;;;;-0.50;99.90;;;;;;5031188;28;19924;-73
2023/01/29 06:26:21;;;;;;;;;;;-0.50;99.90;;;;;;5072842;28;19932;-72
2023/01/29 06:28:51;;;;;;;;;;;-0.50;99.90;;;;;;5070399;28;19935;-73
2023/01/29 06:31:20;;;;;;;;;;;-0.50;99.90;;;;;;5056711;28;19932;-74
2023/01/29 06:33:48;;;;;;;;;;;-0.50;99.90;;;;;;5049378;28;19930;-70
2023/01/29 06:36:18;;;;;;;;;;;-0.50;99.90;;;;;;5067654;28;19931;-72
2023/01/29 06:38:47;;;;;;;;;;;-0.50;99.90;;;;;;5061205;28;20035;-74
2023/01/29 06:41:24;;;;;;;;;;;-0.50;99.90;;;;;;5070615;28;20291;-74
2023/01/29 06:43:53;;;;;;;;;;;-0.50;99.90;;;;;;5070649;28;19932;-73
2023/01/29 06:46:22;;;;;;;;;;;-0.50;99.90;;;;;;5051216;28;19934;-74
2023/01/29 06:48:51;;;;;;;;;;;-0.50;99.90;;;;;;5052911;28;19931;-74
2023/01/29 06:51:21;;;;;;;;;;;-0.50;99.90;;;;;;5050435;28;20568;-74
2023/01/29 06:53:53;;;;;;;;;;;-0.50;99.90;;;;;;5053155;28;20308;-74
2023/01/29 06:56:22;;;;;;;;;;;-0.50;99.90;;;;;;5056951;28;20298;-74
2023/01/29 06:58:51;;;;;;;;;;;-0.50;99.90;;;;;;5048555;28;19934;-74
2023/01/29 07:01:20;;;;;;;;;;;-0.50;99.90;;;;;;5074009;28;19959;-74
2023/01/29 07:04:17;;;;;;;;;;;-0.50;99.90;;;;;;5079163;28;19982;-73
2023/01/29 07:06:48;;;;;;;;;;;-0.50;99.90;;;;;;5059058;28;19924;-75
2023/01/29 07:09:17;;;;;;;;;;;-0.50;99.90;;;;;;5053096;28;19928;-73
2023/01/29 07:11:46;;;;;;;;;;;-0.50;99.90;;;;;;5065156;28;19928;-73
2023/01/29 07:14:19;;;;;;;;;;;-0.50;99.90;;;;;;5061308;28;20036;-74
2023/01/29 07:19:49;;;;;;;;;;;-0.60;99.90;;;;;;5058091;28;19931;-74
2023/01/29 07:22:44;;;;;;;;;;;-0.60;99.90;;;;;;5061465;28;19913;-77
2023/01/29 07:25:15;;;;;;;;;;;-0.50;99.90;;;;;;5077678;28;19932;-73
2023/01/29 07:27:51;;;;;;;;;;;-0.50;99.90;;;;;;5056841;28;20011;-74
2023/01/29 07:30:21;;;;;;;;;;;-0.50;99.90;;;;;;5076316;28;19935;-74
2023/01/29 07:32:54;;;;;;;;;;;-0.50;99.90;;;;;;5058602;28;19924;-73
2023/01/29 07:36:04;;;;;;;;;;;-0.50;99.90;;;;;;5062838;28;19932;-74
2023/01/29 07:39:20;;;;;;;;;;;-0.50;99.90;;;;;;5083134;28;19924;-74
2023/01/29 07:42:14;;;;;;;;;;;-0.50;99.90;;;;;;5090316;28;20313;-73
2023/01/29 07:45:13;;;;;;;;;;;-0.50;99.90;;;;;;5075523;28;20006;-74
2023/01/29 07:48:12;;;;;;;;;;;-0.50;99.90;;;;;;5078054;28;19928;-74
2023/01/29 07:51:05;;;;;;;;;;;-0.50;99.90;;;;;;5085835;28;19925;-73
2023/01/29 07:54:11;;;;;;;;;;;-0.50;99.90;;;;;;5096340;28;19934;-73
2023/01/29 07:57:08;;;;;;;;;;;-0.40;99.90;;;;;;5086976;28;19925;-74
2023/01/29 08:03:46;;;;;;;;;;;-0.50;99.90;;;;;;5100365;28;19957;-72
2023/01/29 08:06:35;;;;;;;;;;;-0.50;99.90;;;;;;5087208;28;19948;-71
2023/01/29 08:09:15;;;;;;;;;;;-0.50;99.90;;;;;;5100145;28;19947;-72
2023/01/29 08:11:49;;;;;;;;;;;-0.50;99.90;;;;;;5066647;28;19927;-73
2023/01/29 08:14:44;;;;;;;;;;;-0.50;99.90;;;;;;5064686;28;19923;-74
2023/01/29 08:17:28;;;;;;;;;;;-0.50;99.90;;;;;;5084750;28;19931;-73
2023/01/29 08:19:58;;;;;;;;;;;-0.50;99.90;;;;;;5090444;28;19928;-72
2023/01/29 08:22:43;;;;;;;;;;;-0.40;99.90;;;;;;5074415;28;19964;-72
2023/01/29 08:28:48;;;;;;;;;;;-0.40;99.90;;;;;;5041007;28;19932;-72
2023/01/29 08:32:00;;;;;;;;;;;-0.40;99.90;;;;;;5013506;28;20063;-72
2023/01/29 08:34:34;;;;;;;;;;;-0.40;99.90;;;;;;5003890;28;20322;-72
2023/01/29 08:37:07;;;;;;;;;;;-0.40;99.90;;;;;;4999800;28;19935;-72
2023/01/29 08:39:54;;;;;;;;;;;-0.40;99.90;;;;;;5032457;28;19926;-73
2023/01/29 08:42:30;;;;;;;;;;;-0.40;99.90;;;;;;5019977;28;19925;-72
2023/01/29 08:45:12;;;;;;;;;;;-0.40;99.90;;;;;;5028326;28;20346;-72
2023/01/29 08:47:50;;;;;;;;;;;-0.40;99.90;;;;;;5013627;28;19929;-72
2023/01/29 08:50:40;;;;;;;;;;;-0.50;99.90;;;;;;5024922;28;20080;-72
2023/01/29 08:53:23;;;;;;;;;;;-0.50;99.90;;;;;;5006795;28;19981;-72
2023/01/29 08:56:03;;;;;;;;;;;-0.50;99.90;;;;;;5018876;28;20071;-73
2023/01/29 08:58:35;;;;;;;;;;;-0.50;99.90;;;;;;5022866;28;19931;-72
2023/01/29 09:01:10;;;;;;;;;;;-0.50;99.90;;;;;;5089152;28;19932;-73
2023/01/29 09:03:45;;;;;;;;;;;-0.40;99.90;;;;;;5070614;28;19930;-73
2023/01/29 09:06:20;;;;;;;;;;;-0.40;99.90;;;;;;5055015;28;20397;-72
2023/01/29 09:09:03;;;;;;;;;;;-0.40;99.90;;;;;;5089893;28;19927;-73
2023/01/29 09:11:53;;;;;;;;;;;-0.30;99.90;;;;;;5098598;28;19952;-72
2023/01/29 09:14:35;;;;;;;;;;;-0.30;99.90;;;;;;5077446;28;20021;-72
2023/01/29 09:17:06;;;;;;;;;;;-0.20;99.90;;;;;;5073234;28;20279;-72
2023/01/29 09:19:41;;;;;;;;;;;-0.20;99.90;;;;;;5076659;28;19929;-74
2023/01/29 09:22:13;;;;;;;;;;;-0.20;99.90;;;;;;5084341;28;20002;-75
2023/01/29 09:24:44;;;;;;;;;;;-0.20;99.90;;;;;;5071127;28;20536;-73
2023/01/29 09:27:11;;;;;;;;;;;-0.10;99.90;;;;;;5063614;28;19924;-75
2023/01/29 09:29:43;;;;;;;;;;;-0.10;99.90;;;;;;5072234;28;20038;-74
2023/01/29 09:32:15;;;;;;;;;;;-0.10;99.90;;;;;;5079136;28;19935;-74
2023/01/29 09:34:41;;;;;;;;;;;0.00;99.90;;;;;;5065593;28;19928;-73
2023/01/29 09:37:14;;;;;;;;;;;0.00;99.90;;;;;;5094048;28;19925;-75
2023/01/29 09:39:41;;;;;;;;;;;-0.10;99.90;;;;;;5066154;28;19929;-75
2023/01/29 09:42:13;;;;;;;;;;;0.00;99.90;;;;;;5070212;28;19924;-72
2023/01/29 09:44:39;;;;;;;;;;;0.00;99.90;;;;;;5060821;28;20630;-74
2023/01/29 09:47:13;;;;;;;;;;;0.00;99.90;;;;;;5065461;28;19931;-73
2023/01/29 09:49:46;;;;;;;;;;;0.00;99.90;;;;;;5059026;28;19969;-74
2023/01/29 09:52:26;;;;;;;;;;;0.00;99.90;;;;;;5064434;28;19954;-74
2023/01/29 09:55:03;;;;;;;;;;;0.00;99.90;;;;;;5055723;28;19973;-74
2023/01/29 09:57:45;;;;;;;;;;;0.00;99.90;;;;;;5083902;28;19925;-74
2023/01/29 10:00:21;;;;;;;;;;;0.10;99.90;;;;;;5044996;28;19983;-74
2023/01/29 10:02:55;;;;;;;;;;;0.10;99.90;;;;;;5062676;28;21360;-74
2023/01/29 10:05:34;;;;;;;;;;;0.10;99.90;;;;;;5044689;28;20331;-74
2023/01/29 10:08:16;;;;;;;;;;;0.10;99.90;;;;;;5049830;28;19935;-73
2023/01/29 10:10:48;;;;;;;;;;;0.20;99.90;;;;;;5046463;28;19938;-74
2023/01/29 10:13:23;;;;;;;;;;;0.20;99.90;;;;;;5073739;28;19929;-74
2023/01/29 10:16:04;;;;;;;;;;;0.10;99.90;;;;;;5059444;28;19933;-75
2023/01/29 10:18:51;;;;;;;;;;;0.20;99.90;;;;;;5051624;28;19927;-75
2023/01/29 10:21:32;;;;;;;;;;;0.10;99.90;;;;;;5075226;28;19928;-74
2023/01/29 10:24:22;;;;;;;;;;;0.20;99.90;;;;;;5080270;28;19928;-73
2023/01/29 10:26:50;;;;;;;;;;;0.20;99.90;;;;;;5052702;28;20030;-73
2023/01/29 10:29:22;;;;;;;;;;;0.20;99.90;;;;;;5082347;28;19935;-74
2023/01/29 10:32:03;;;;;;;;;;;0.20;99.90;;;;;;5065045;28;19928;-74
2023/01/29 10:34:40;;;;;;;;;;;0.10;99.90;;;;;;5075364;28;19932;-74
2023/01/29 10:37:22;;;;;;;;;;;0.10;99.90;;;;;;5064320;28;20007;-75
2023/01/29 10:39:54;;;;;;;;;;;0.00;99.90;;;;;;5050642;28;19932;-74
2023/01/29 10:42:32;;;;;;;;;;;-0.10;99.90;;;;;;5061886;28;19932;-74
2023/01/29 10:45:01;;;;;;;;;;;0.00;99.90;;;;;;5050927;28;19931;-73
2023/01/29 10:47:47;;;;;;;;;;;0.00;99.90;;;;;;5052883;28;19969;-75
2023/01/29 10:50:23;;;;;;;;;;;0.20;99.90;;;;;;5057108;28;19932;-74
2023/01/29 10:52:54;;;;;;;;;;;0.30;99.90;;;;;;5048256;28;20453;-74
2023/01/29 10:55:45;;;;;;;;;;;0.30;99.90;;;;;;5070859;28;20382;-74
2023/01/29 10:58:26;;;;;;;;;;;0.30;99.90;;;;;;5100630;28;19920;-73
2023/01/29 11:00:58;;;;;;;;;;;0.40;99.90;;;;;;5074602;28;19928;-73
2023/01/29 11:03:31;;;;;;;;;;;0.40;99.90;;;;;;5073935;28;20157;-74
2023/01/29 11:06:22;;;;;;;;;;;0.30;99.90;;;;;;5054623;28;19990;-72
2023/01/29 11:09:01;;;;;;;;;;;0.30;99.90;;;;;;5049752;28;19978;-74
2023/01/29 11:11:45;;;;;;;;;;;0.20;99.90;;;;;;5055789;28;20460;-74
2023/01/29 11:14:27;;;;;;;;;;;0.20;99.90;;;;;;5076168;28;20001;-74
2023/01/29 11:16:58;;;;;;;;;;;0.10;99.90;;;;;;5067787;28;19932;-73
2023/01/29 11:19:41;;;;;;;;;;;0.10;99.90;;;;;;5072960;28;19935;-75
2023/01/29 11:22:18;;;;;;;;;;;0.20;99.90;;;;;;5071142;28;19924;-74
2023/01/29 11:24:46;;;;;;;;;;;0.20;99.90;;;;;;5041924;28;19932;-73
2023/01/29 11:27:22;;;;;;;;;;;0.20;99.90;;;;;;5078698;28;19931;-73
2023/01/29 11:29:49;;;;;;;;;;;0.10;99.90;;;;;;5049096;28;19924;-74
2023/01/29 11:32:27;;;;;;;;;;;0.20;99.90;;;;;;5069559;28;19932;-72
2023/01/29 11:35:12;;;;;;;;;;;0.20;99.90;;;;;;5068069;28;19924;-74
2023/01/29 11:37:45;;;;;;;;;;;0.20;99.90;;;;;;5049617;28;19929;-74
2023/01/29 11:40:17;;;;;;;;;;;0.30;99.90;;;;;;5078781;28;19929;-74
2023/01/29 11:42:44;;;;;;;;;;;0.30;99.90;;;;;;5061465;28;19974;-74
2023/01/29 11:45:28;;;;;;;;;;;0.30;99.90;;;;;;5047286;28;19958;-75
2023/01/29 11:47:55;;;;;;;;;;;0.30;99.90;;;;;;5045365;28;19927;-74
2023/01/29 11:50:28;;;;;;;;;;;0.20;99.90;;;;;;5062537;28;19994;-74
2023/01/29 11:53:00;;;;;;;;;;;0.20;99.90;;;;;;5065633;28;19935;-74
2023/01/29 11:55:29;;;;;;;;;;;0.10;99.90;;;;;;5054203;28;19928;-74
2023/01/29 11:58:03;;;;;;;;;;;0.20;99.90;;;;;;5064943;28;19929;-74
2023/01/29 12:00:35;;;;;;;;;;;0.30;99.90;;;;;;5079340;28;19924;-74
2023/01/29 12:03:13;;;;;;;;;;;0.40;99.90;;;;;;5061964;28;19971;-74
2023/01/29 12:05:51;;;;;;;;;;;0.40;99.90;;;;;;5057155;28;19978;-73
2023/01/29 12:08:23;;;;;;;;;;;0.40;99.90;;;;;;5079867;28;19932;-74
2023/01/29 12:11:06;;;;;;;;;;;0.30;99.90;;;;;;5061142;28;19980;-73
2023/01/29 12:13:39;;;;;;;;;;;0.20;99.90;;;;;;5076187;28;19924;-73
2023/01/29 12:16:11;;;;;;;;;;;0.20;99.90;;;;;;5077439;28;19928;-74
2023/01/29 12:18:49;;;;;;;;;;;0.10;99.90;;;;;;5059905;28;20387;-74
2023/01/29 12:21:27;;;;;;;;;;;0.00;99.90;;;;;;5064917;28;20431;-73
2023/01/29 12:24:11;;;;;;;;;;;0.00;99.90;;;;;;5050609;28;20379;-74
2023/01/29 12:26:43;;;;;;;;;;;0.10;99.90;;;;;;5052979;28;19978;-73
2023/01/29 12:29:35;;;;;;;;;;;0.10;99.90;;;;;;5073335;28;19931;-74
2023/01/29 12:32:10;;;;;;;;;;;0.10;99.90;;;;;;5075548;28;20303;-72
2023/01/29 12:34:40;;;;;;;;;;;0.10;99.90;;;;;;5066146;28;19977;-74
2023/01/29 12:37:12;;;;;;;;;;;0.10;99.90;;;;;;5067411;28;19935;-74
2023/01/29 12:39:44;;;;;;;;;;;0.00;99.90;;;;;;5065935;28;19977;-74
2023/01/29 12:42:18;;;;;;;;;;;0.00;99.90;;;;;;5073013;28;19924;-74
2023/01/29 12:45:00;;;;;;;;;;;0.00;99.90;;;;;;5077183;28;19924;-74
2023/01/29 12:47:32;;;;;;;;;;;-0.10;99.90;;;;;;5069723;28;19928;-74
2023/01/29 12:50:13;;;;;;;;;;;-0.10;99.90;;;;;;5052479;28;19936;-74
2023/01/29 12:52:59;;;;;;;;;;;-0.10;99.90;;;;;;5077067;28;19951;-74
2023/01/29 12:55:26;;;;;;;;;;;-0.10;99.90;;;;;;5064894;28;19923;-74
2023/01/29 12:57:59;;;;;;;;;;;-0.10;99.90;;;;;;5083524;28;19928;-73
2023/01/29 13:00:32;;;;;;;;;;;0.00;99.90;;;;;;5055142;28;19986;-73
2023/01/29 13:03:14;;;;;;;;;;;-0.10;99.90;;;;;;5051082;28;19928;-74
2023/01/29 13:05:55;;;;;;;;;;;-0.10;99.90;;;;;;5069024;28;19924;-74
2023/01/29 13:08:31;;;;;;;;;;;-0.10;99.90;;;;;;5063171;28;19924;-74
2023/01/29 13:11:06;;;;;;;;;;;-0.10;99.90;;;;;;5062433;28;19924;-74
2023/01/29 13:13:56;;;;;;;;;;;-0.10;99.90;;;;;;5079636;28;19974;-73
2023/01/29 13:16:36;;;;;;;;;;;0.00;99.90;;;;;;5077045;28;19924;-73
2023/01/29 13:19:20;;;;;;;;;;;0.00;99.90;;;;;;5066354;28;19924;-73
2023/01/29 13:21:53;;;;;;;;;;;0.00;99.90;;;;;;5055640;28;19935;-74
2023/01/29 13:24:22;;;;;;;;;;;-0.10;99.90;;;;;;5063808;28;19928;-71
2023/01/29 13:26:48;;;;;;;;;;;-0.20;99.90;;;;;;5063782;28;19925;-74
2023/01/29 13:29:24;;;;;;;;;;;-0.20;99.90;;;;;;5057414;28;20541;-74
2023/01/29 13:31:57;;;;;;;;;;;-0.30;99.90;;;;;;5084803;28;19931;-74
2023/01/29 13:34:42;;;;;;;;;;;-0.30;99.90;;;;;;5050305;28;19982;-74
2023/01/29 13:37:11;;;;;;;;;;;-0.30;99.90;;;;;;5091030;28;19928;-73
2023/01/29 13:39:48;;;;;;;;;;;-0.30;99.90;;;;;;5060433;28;19936;-74
2023/01/29 13:42:20;;;;;;;;;;;-0.30;99.90;;;;;;5077566;28;19928;-72
2023/01/29 13:44:48;;;;;;;;;;;-0.30;99.90;;;;;;5060759;28;19928;-74
2023/01/29 13:47:23;;;;;;;;;;;-0.20;99.90;;;;;;5084927;28;19928;-74
2023/01/29 13:49:57;;;;;;;;;;;-0.30;99.90;;;;;;5075280;28;19912;-74
2023/01/29 13:52:29;;;;;;;;;;;-0.30;99.90;;;;;;5057429;28;19924;-73
2023/01/29 13:55:21;;;;;;;;;;;-0.30;99.90;;;;;;5066141;28;19928;-74
2023/01/29 13:57:53;;;;;;;;;;;-0.40;99.90;;;;;;5068256;28;20391;-74
2023/01/29 14:00:20;;;;;;;;;;;-0.30;99.90;;;;;;5046316;28;19925;-74
2023/01/29 14:02:54;;;;;;;;;;;-0.20;99.90;;;;;;5080402;28;19981;-73
2023/01/29 14:05:29;;;;;;;;;;;-0.30;99.90;;;;;;5089316;28;19931;-74
2023/01/29 14:08:13;;;;;;;;;;;-0.20;99.90;;;;;;5068181;28;19924;-74
2023/01/29 14:10:45;;;;;;;;;;;-0.20;99.90;;;;;;5068246;28;20303;-74
2023/01/29 14:13:17;;;;;;;;;;;-0.10;99.90;;;;;;5047624;28;19928;-74
2023/01/29 14:15:57;;;;;;;;;;;-0.10;99.90;;;;;;5065357;28;20393;-74
2023/01/29 14:18:31;;;;;;;;;;;-0.10;99.90;;;;;;5075192;28;19969;-71
2023/01/29 14:20:59;;;;;;;;;;;-0.20;99.90;;;;;;5054694;28;19924;-70
2023/01/29 14:23:30;;;;;;;;;;;-0.30;99.90;;;;;;5060681;28;19974;-71
2023/01/29 14:25:59;;;;;;;;;;;-0.30;99.90;;;;;;5052301;28;20015;-71
2023/01/29 14:28:32;;;;;;;;;;;-0.30;99.90;;;;;;5038212;28;20298;-72
2023/01/29 14:31:02;;;;;;;;;;;-0.30;99.90;;;;;;5055564;28;19924;-70
2023/01/29 14:33:30;;;;;;;;;;;-0.40;99.90;;;;;;5053663;28;19928;-72
2023/01/29 14:35:58;;;;;;;;;;;-0.40;99.90;;;;;;5056463;28;20368;-72
2023/01/29 14:38:28;;;;;;;;;;;-0.40;99.90;;;;;;5075131;28;19970;-72
2023/01/29 14:41:04;;;;;;;;;;;-0.40;99.90;;;;;;5044458;28;19952;-72
2023/01/29 14:43:33;;;;;;;;;;;-0.30;99.90;;;;;;5055458;28;19928;-71
2023/01/29 14:46:35;;;;;;;;;;;-0.30;99.90;;;;;;5057597;28;19927;-71
2023/01/29 14:49:06;;;;;;;;;;;-0.30;99.90;;;;;;5052215;28;20478;-72
2023/01/29 14:51:38;;;;;;;;;;;-0.30;99.90;;;;;;5047780;28;19970;-71
2023/01/29 14:54:20;;;;;;;;;;;-0.30;99.90;;;;;;5040363;28;19947;-72
2023/01/29 14:56:56;;;;;;;;;;;-0.30;99.90;;;;;;5068525;28;19929;-72
2023/01/29 14:59:28;;;;;;;;;;;-0.30;99.90;;;;;;5051803;28;19924;-72
2023/01/29 15:02:02;;;;;;;;;;;-0.30;99.90;;;;;;5058719;28;19967;-72
2023/01/29 15:04:36;;;;;;;;;;;-0.30;99.90;;;;;;5055813;28;19924;-71
2023/01/29 15:07:10;;;;;;;;;;;-0.30;99.90;;;;;;5053467;28;19924;-72
2023/01/29 15:09:45;;;;;;;;;;;-0.20;99.90;;;;;;5045802;28;19967;-72
2023/01/29 15:12:48;;;;;;;;;;;-0.20;99.90;;;;;;5055537;28;19931;-72
2023/01/29 15:15:38;;;;;;;;;;;-0.20;99.90;;;;;;5021775;28;19928;-72
2023/01/29 15:18:28;;;;;;;;;;;-0.30;99.90;;;;;;5083895;28;19924;-73
2023/01/29 15:21:00;;;;;;;;;;;-0.30;99.90;;;;;;5058570;28;19932;-72
2023/01/29 15:23:35;;;;;;;;;;;-0.30;99.90;;;;;;5079641;28;19928;-72
2023/01/29 15:26:10;;;;;;;;;;;-0.40;99.90;;;;;;5055862;28;20349;-73
2023/01/29 15:28:37;;;;;;;;;;;-0.40;99.90;;;;;;5067594;28;19924;-73
2023/01/29 15:31:15;;;;;;;;;;;-0.40;99.90;;;;;;5056614;28;19974;-74
2023/01/29 15:33:44;;;;;;;;;;;-0.30;99.90;;;;;;5049191;28;20656;-73
2023/01/29 15:36:20;;;;;;;;;;;-0.30;99.90;;;;;;5102985;28;19923;-73
2023/01/29 15:39:10;;;;;;;;;;;-0.20;99.90;;;;;;5068855;28;19928;-72
2023/01/29 15:41:37;;;;;;;;;;;-0.20;99.90;;;;;;5081025;28;19924;-73
2023/01/29 15:44:11;;;;;;;;;;;-0.30;99.90;;;;;;5050020;28;19927;-72
2023/01/29 15:46:44;;;;;;;;;;;-0.30;99.90;;;;;;5084819;28;19981;-72
2023/01/29 15:49:24;;;;;;;;;;;-0.30;99.90;;;;;;5061195;28;19924;-72
2023/01/29 15:51:55;;;;;;;;;;;-0.30;99.90;;;;;;5069749;28;19924;-73
2023/01/29 15:54:29;;;;;;;;;;;-0.20;99.90;;;;;;5075793;28;20399;-73